EINN

Shannon Airport

Shannon, Ireland
METAR EINN 191700Z 25010KT 9999 FEW010 SCT016 BKN030 20/17 Q1019 NOSIG
Observed Flight Rules
Aug-19 @ 17:00 UTC (12 minutes ago) Marginal Visual Flight Rules
Wind Visibility Clouds
250° at 10 knots 10,000+ meters
  • Few at 1,000' AGL
  • Scattered at 1,600' AGL
  • Broken at 3,000' AGL
Temperatures Readings
Current 20°C / 68°F
Dewpoint 17°C / 63°F
Humidity 83%
Altimeter 30.09" Hg
Pressure 1019 hPa
Elevation 20
METAR EINN 191700Z 25010KT 9999 FEW010 SCT016 BKN030 20/17 Q1019 NOSIG
Observed Flight Rules
Aug-19 @ 17:00 UTC
(12 minutes ago)
MVFR
Wind Visibility
250° at 10 knots 10,000+ meters
Clouds
  • Few at 1,000' AGL
  • Scattered at 1,600' AGL
  • Broken at 3,000' AGL
Temperature Dewpoint
20°C / 68°F 17°C / 63°F
Humidity Altimeter Pressure
83% 30.09" Hg 1019 hPa